Weather History for Manistee, MI

Change the Weather History Date:

Sunday, December 30, 2012

  Actual Average Record
Temperature  
Mean Temperature 26 °F -  
Max Temperature 28 °F 30 °F 50 °F (2002)
Min Temperature 21 °F 18 °F -8 °F (1976)
Degree Days  
Heating Degree Days 40    
Moisture  
Dew Point 18 °F    
Average Humidity 75    
Maximum Humidity 93    
Minimum Humidity 64    
Precipitation  
Precipitation 0.00 in - - ()
Sea Level Pressure  
Sea Level Pressure 30.15 in    
Wind  
Wind Speed 10 mph (SW)    
Max Wind Speed 14 mph    
Max Gust Speed 21 mph    
Visibility 10 miles    
Events      
Averages and records for this station are not official NWS values.
T = Trace of Precipitation, MM = Missing Value Source: NWS Daily Summary

Daily Weather History Graph

Daily Weather History Graph

Search for Another Location

Airport:

Trip Planner

Search our weather history database for the weather conditions in past years. The results will help you decide how hot, cold, wet, or windy it might be!

Date:

Astronomy

Dec. 30, 2012 Rise Set
Actual Time 8:20 AM EST 5:15 PM EST
Civil Twilight 7:47 AM EST 5:48 PM EST
Nautical Twilight 7:10 AM EST 6:25 PM EST
Astronomical Twilight 6:35 AM EST 7:00 PM EST
Moon 7:51 PM EST (12/30) 9:23 AM EST (12/30)
Length of Visible Light 10h 01m
Length of Day
8h 54m
Waning Gibbous, 95% of the Moon is Illuminated
Dec 30
Waning Gibbous
Jan 4
Last Quarter
Jan 11
New
Jan 18
First Quarter
Jan 26
Full

Hourly Weather History & Observations

Time (EST) Temp. Windchill Dew Point Humidity Pressure Visibility Wind Dir Wind Speed Gust Speed Precip Events Conditions
12:15 AM 30.2 °F 19.8 °F 19.4 °F 64% 30.07 in 10.0 mi WNW 13.8 mph - N/A   Overcast
12:35 AM 28.4 °F 18.0 °F 19.4 °F 69% 30.07 in 10.0 mi West 12.7 mph - N/A   Overcast
12:55 AM 28.4 °F 17.5 °F 17.6 °F 64% 30.07 in 10.0 mi WNW 13.8 mph - N/A   Overcast
1:15 AM 28.4 °F 18.0 °F 19.4 °F 69% 30.08 in 10.0 mi West 12.7 mph - N/A   Overcast
1:35 AM 28.4 °F 17.5 °F 17.6 °F 64% 30.08 in 10.0 mi West 13.8 mph - N/A   Overcast
1:55 AM 28.4 °F 17.5 °F 19.4 °F 69% 30.09 in 10.0 mi West 13.8 mph - N/A   Overcast
2:15 AM 28.4 °F 17.5 °F 19.4 °F 69% 30.10 in 10.0 mi West 13.8 mph 20.7 mph N/A   Overcast
2:35 AM 28.4 °F 18.0 °F 19.4 °F 69% 30.11 in 10.0 mi West 12.7 mph - N/A   Overcast
2:55 AM 28.4 °F 19.1 °F 19.4 °F 69% 30.11 in 10.0 mi West 10.4 mph 19.6 mph N/A   Overcast
3:15 AM 28.4 °F 19.1 °F 19.4 °F 69% 30.12 in 10.0 mi West 10.4 mph - N/A   Overcast
3:35 AM 26.6 °F 15.2 °F 19.4 °F 74% 30.12 in 10.0 mi West 13.8 mph - N/A   Overcast
3:55 AM 26.6 °F 16.8 °F 17.6 °F 69% 30.13 in 10.0 mi West 10.4 mph - N/A   Overcast
4:15 AM 26.6 °F 15.7 °F 19.4 °F 74% 30.13 in 10.0 mi West 12.7 mph - N/A   Overcast
4:35 AM 26.6 °F 15.7 °F 17.6 °F 69% 30.13 in 10.0 mi West 12.7 mph - N/A   Overcast
4:55 AM 26.6 °F 15.7 °F 17.6 °F 69% 30.14 in 10.0 mi West 12.7 mph 16.1 mph N/A   Overcast
5:15 AM 24.8 °F 13.4 °F 19.4 °F 80% 30.14 in 10.0 mi WSW 12.7 mph - N/A   Overcast
5:35 AM 24.8 °F 17.9 °F 19.4 °F 80% 30.15 in 10.0 mi WSW 5.8 mph - N/A   Overcast
5:55 AM 24.8 °F 14.6 °F 19.4 °F 80% 30.16 in 10.0 mi West 10.4 mph - N/A   Overcast
6:15 AM 24.8 °F 14.0 °F 17.6 °F 74% 30.16 in 10.0 mi WSW 11.5 mph 18.4 mph N/A   Overcast
6:35 AM 24.8 °F 14.0 °F 17.6 °F 74% 30.17 in 10.0 mi West 11.5 mph - N/A   Overcast
6:55 AM 24.8 °F 14.6 °F 17.6 °F 74% 30.18 in 10.0 mi West 10.4 mph 18.4 mph N/A   Overcast
7:15 AM 24.8 °F 14.0 °F 17.6 °F 74% 30.19 in 10.0 mi West 11.5 mph - N/A   Overcast
7:35 AM 24.8 °F 14.0 °F 17.6 °F 74% 30.19 in 10.0 mi West 11.5 mph - N/A   Overcast
7:55 AM 24.8 °F 13.4 °F 17.6 °F 74% 30.19 in 10.0 mi West 12.7 mph 17.3 mph N/A   Overcast
8:15 AM 24.8 °F 15.3 °F 15.8 °F 69% 30.19 in 10.0 mi WSW 9.2 mph - N/A   Overcast
8:35 AM 24.8 °F 17.9 °F 17.6 °F 74% 30.19 in 10.0 mi WSW 5.8 mph - N/A   Overcast
8:55 AM 24.8 °F 14.6 °F 17.6 °F 74% 30.20 in 10.0 mi WSW 10.4 mph - N/A   Overcast
9:15 AM 24.8 °F 16.9 °F 17.6 °F 74% 30.20 in 10.0 mi WSW 6.9 mph - N/A   Overcast
9:35 AM 24.8 °F 17.9 °F 17.6 °F 74% 30.20 in 10.0 mi WSW 5.8 mph - N/A   Overcast
9:55 AM 24.8 °F 15.3 °F 17.6 °F 74% 30.20 in 10.0 mi SW 9.2 mph - N/A   Overcast
10:15 AM 24.8 °F 16.1 °F 17.6 °F 74% 30.21 in 10.0 mi SW 8.1 mph - N/A   Overcast
10:35 AM 24.8 °F 16.9 °F 15.8 °F 69% 30.22 in 10.0 mi SW 6.9 mph - N/A   Overcast
10:55 AM 24.8 °F 16.9 °F 17.6 °F 74% 30.22 in 10.0 mi SW 6.9 mph - N/A   Overcast
11:15 AM 24.8 °F 16.1 °F 19.4 °F 80% 30.23 in 10.0 mi SSW 8.1 mph - N/A   Overcast
11:35 AM 24.8 °F 19.1 °F 15.8 °F 69% 30.22 in 10.0 mi SW 4.6 mph - N/A   Overcast
11:55 AM 24.8 °F 14.0 °F 17.6 °F 74% 30.22 in 10.0 mi SW 11.5 mph - N/A   Overcast
12:15 PM 24.8 °F 15.3 °F 15.8 °F 69% 30.22 in 10.0 mi WSW 9.2 mph - N/A   Overcast
12:35 PM 24.8 °F 16.9 °F 15.8 °F 69% 30.21 in 10.0 mi WSW 6.9 mph - N/A   Overcast
12:55 PM 24.8 °F 16.1 °F 15.8 °F 69% 30.21 in 10.0 mi SW 8.1 mph - N/A   Overcast
1:15 PM 24.8 °F 15.3 °F 17.6 °F 74% 30.20 in 10.0 mi WSW 9.2 mph - N/A   Overcast
1:35 PM 24.8 °F 16.1 °F 15.8 °F 69% 30.21 in 10.0 mi SW 8.1 mph 16.1 mph N/A   Overcast
1:55 PM 24.8 °F 15.3 °F 17.6 °F 74% 30.20 in 10.0 mi WSW 9.2 mph - N/A   Overcast
2:15 PM 24.8 °F 14.0 °F 15.8 °F 69% 30.19 in 10.0 mi WSW 11.5 mph 16.1 mph N/A   Overcast
2:35 PM 24.8 °F 14.6 °F 17.6 °F 74% 30.19 in 10.0 mi SW 10.4 mph - N/A   Overcast
2:55 PM 24.8 °F 15.3 °F 17.6 °F 74% 30.18 in 10.0 mi SSW 9.2 mph - N/A   Overcast
3:15 PM 24.8 °F 14.6 °F 17.6 °F 74% 30.18 in 10.0 mi SSW 10.4 mph - N/A   Overcast
3:35 PM 24.8 °F 15.3 °F 17.6 °F 74% 30.19 in 10.0 mi SSW 9.2 mph - N/A   Overcast
3:55 PM 24.8 °F 15.3 °F 17.6 °F 74% 30.18 in 10.0 mi South 9.2 mph - N/A   Overcast
4:15 PM 24.8 °F 19.1 °F 17.6 °F 74% 30.17 in 10.0 mi SSW 4.6 mph - N/A   Overcast
4:35 PM 24.8 °F 16.9 °F 17.6 °F 74% 30.16 in 10.0 mi South 6.9 mph - N/A   Overcast
4:55 PM 24.8 °F 16.1 °F 17.6 °F 74% 30.16 in 10.0 mi SSW 8.1 mph - N/A   Overcast
5:15 PM 24.8 °F 16.1 °F 17.6 °F 74% 30.15 in 10.0 mi SSW 8.1 mph - N/A   Overcast
5:35 PM 24.8 °F 16.9 °F 17.6 °F 74% 30.16 in 10.0 mi SSW 6.9 mph - N/A   Overcast
5:55 PM 24.8 °F 17.9 °F 19.4 °F 80% 30.15 in 10.0 mi SSW 5.8 mph - N/A   Overcast
6:15 PM 24.8 °F 17.9 °F 19.4 °F 80% 30.15 in 10.0 mi South 5.8 mph - N/A   Overcast
6:35 PM 24.8 °F 19.1 °F 17.6 °F 74% 30.15 in 10.0 mi South 4.6 mph - N/A   Overcast
6:55 PM 24.8 °F 20.5 °F 19.4 °F 80% 30.14 in 10.0 mi South 3.5 mph - N/A   Overcast
7:15 PM 24.8 °F 20.5 °F 19.4 °F 80% 30.14 in 10.0 mi SSE 3.5 mph - N/A   Overcast
7:35 PM 24.8 °F - 19.4 °F 80% 30.14 in 10.0 mi Calm Calm - N/A   Mostly Cloudy
7:55 PM 24.8 °F 20.5 °F 17.6 °F 74% 30.14 in 10.0 mi SSE 3.5 mph - N/A   Overcast
8:15 PM 23.0 °F 18.4 °F 19.4 °F 86% 30.12 in 10.0 mi SSE 3.5 mph - N/A   Mostly Cloudy
8:35 PM 23.0 °F 18.4 °F 17.6 °F 80% 30.12 in 10.0 mi SSE 3.5 mph - N/A   Partly Cloudy
8:55 PM 23.0 °F - 19.4 °F 86% 30.11 in 10.0 mi Calm Calm - N/A   Clear
9:15 PM 23.0 °F - 19.4 °F 86% 30.10 in 10.0 mi Calm Calm - N/A   Partly Cloudy
9:35 PM 21.2 °F - 17.6 °F 86% 30.09 in 9.0 mi Calm Calm - N/A   Scattered Clouds
9:55 PM 21.2 °F 16.4 °F 17.6 °F 86% 30.07 in 8.0 mi East 3.5 mph - N/A   Mostly Cloudy
10:15 PM 21.2 °F 16.4 °F 19.4 °F 93% 30.06 in 8.0 mi ESE 3.5 mph - N/A   Scattered Clouds
10:35 PM 21.2 °F - 17.6 °F 86% 30.05 in 7.0 mi Calm Calm - N/A   Partly Cloudy
10:55 PM 23.0 °F - 19.4 °F 86% 30.05 in 8.0 mi Calm Calm - N/A   Mostly Cloudy
11:15 PM 24.8 °F - 19.4 °F 80% 30.05 in 8.0 mi Calm Calm - N/A   Overcast
11:35 PM 23.0 °F 18.4 °F 19.4 °F 86% 30.04 in 8.0 mi ESE 3.5 mph - N/A   Overcast
11:55 PM 24.8 °F - 21.2 °F 86% 30.03 in 10.0 mi Calm Calm - N/A   Overcast